sensor_id;sensor_type;location;lat;lon;timestamp;temperature;humidity
65046;DHT22;54657;52.022;5.534;2023-10-13T00:02:02;18.10;99.90
65046;DHT22;54657;52.022;5.534;2023-10-13T00:04:30;18.10;99.90
65046;DHT22;54657;52.022;5.534;2023-10-13T00:07:02;18.10;99.90
65046;DHT22;54657;52.022;5.534;2023-10-13T00:09:28;18.10;99.90
65046;DHT22;54657;52.022;5.534;2023-10-13T00:12:07;18.10;99.90
65046;DHT22;54657;52.022;5.534;2023-10-13T00:14:35;18.20;99.90
65046;DHT22;54657;52.022;5.534;2023-10-13T00:17:02;18.10;99.90
65046;DHT22;54657;52.022;5.534;2023-10-13T00:19:36;18.10;99.90
65046;DHT22;54657;52.022;5.534;2023-10-13T00:22:13;18.10;99.90
65046;DHT22;54657;52.022;5.534;2023-10-13T00:24:42;18.10;99.90
65046;DHT22;54657;52.022;5.534;2023-10-13T00:27:19;18.10;99.90
65046;DHT22;54657;52.022;5.534;2023-10-13T00:30:03;18.10;99.90
65046;DHT22;54657;52.022;5.534;2023-10-13T00:32:41;18.10;99.90
65046;DHT22;54657;52.022;5.534;2023-10-13T00:35:09;18.10;99.90
65046;DHT22;54657;52.022;5.534;2023-10-13T00:37:39;18.10;99.90
65046;DHT22;54657;52.022;5.534;2023-10-13T00:40:10;18.10;99.90
65046;DHT22;54657;52.022;5.534;2023-10-13T00:43:02;18.10;99.90
65046;DHT22;54657;52.022;5.534;2023-10-13T00:45:55;18.10;99.90
65046;DHT22;54657;52.022;5.534;2023-10-13T00:48:36;18.00;99.90
65046;DHT22;54657;52.022;5.534;2023-10-13T00:51:10;18.00;99.90
65046;DHT22;54657;52.022;5.534;2023-10-13T00:53:44;18.10;99.90
65046;DHT22;54657;52.022;5.534;2023-10-13T00:56:12;18.10;99.90
65046;DHT22;54657;52.022;5.534;2023-10-13T00:58:48;18.10;99.90
65046;DHT22;54657;52.022;5.534;2023-10-13T01:01:17;18.10;99.90
65046;DHT22;54657;52.022;5.534;2023-10-13T01:03:51;18.10;99.90
65046;DHT22;54657;52.022;5.534;2023-10-13T01:06:25;18.10;99.90
65046;DHT22;54657;52.022;5.534;2023-10-13T01:09:00;18.10;99.90
65046;DHT22;54657;52.022;5.534;2023-10-13T01:11:37;18.10;99.90
65046;DHT22;54657;52.022;5.534;2023-10-13T01:14:02;18.00;99.90
65046;DHT22;54657;52.022;5.534;2023-10-13T01:16:29;18.10;99.90
65046;DHT22;54657;52.022;5.534;2023-10-13T01:18:55;18.00;99.90
65046;DHT22;54657;52.022;5.534;2023-10-13T01:21:26;18.00;99.90
65046;DHT22;54657;52.022;5.534;2023-10-13T01:23:55;18.00;99.90
65046;DHT22;54657;52.022;5.534;2023-10-13T01:26:21;18.00;99.90
65046;DHT22;54657;52.022;5.534;2023-10-13T01:28:50;18.00;99.90
65046;DHT22;54657;52.022;5.534;2023-10-13T01:31:16;18.10;99.90
65046;DHT22;54657;52.022;5.534;2023-10-13T01:33:55;18.00;99.90
65046;DHT22;54657;52.022;5.534;2023-10-13T01:36:25;18.00;99.90
65046;DHT22;54657;52.022;5.534;2023-10-13T01:38:51;18.00;99.90
65046;DHT22;54657;52.022;5.534;2023-10-13T01:41:17;18.00;99.90
65046;DHT22;54657;52.022;5.534;2023-10-13T01:43:43;18.00;99.90
65046;DHT22;54657;52.022;5.534;2023-10-13T01:46:10;18.00;99.90
65046;DHT22;54657;52.022;5.534;2023-10-13T01:48:35;18.00;99.90
65046;DHT22;54657;52.022;5.534;2023-10-13T01:51:06;18.00;99.90
65046;DHT22;54657;52.022;5.534;2023-10-13T01:53:36;18.00;99.90
65046;DHT22;54657;52.022;5.534;2023-10-13T01:56:02;18.00;99.90
65046;DHT22;54657;52.022;5.534;2023-10-13T01:58:31;18.00;99.90
65046;DHT22;54657;52.022;5.534;2023-10-13T02:00:57;17.90;99.90
65046;DHT22;54657;52.022;5.534;2023-10-13T02:03:22;17.90;99.90
65046;DHT22;54657;52.022;5.534;2023-10-13T02:05:49;17.90;99.90
65046;DHT22;54657;52.022;5.534;2023-10-13T02:08:20;18.00;99.90
65046;DHT22;54657;52.022;5.534;2023-10-13T02:10:54;18.00;99.90
65046;DHT22;54657;52.022;5.534;2023-10-13T02:13:20;18.00;99.90
65046;DHT22;54657;52.022;5.534;2023-10-13T02:15:48;17.90;99.90
65046;DHT22;54657;52.022;5.534;2023-10-13T02:18:15;17.90;99.90
65046;DHT22;54657;52.022;5.534;2023-10-13T02:20:52;17.90;99.90
65046;DHT22;54657;52.022;5.534;2023-10-13T02:23:22;17.90;99.90
65046;DHT22;54657;52.022;5.534;2023-10-13T02:25:48;17.90;99.90
65046;DHT22;54657;52.022;5.534;2023-10-13T02:28:17;17.90;99.90
65046;DHT22;54657;52.022;5.534;2023-10-13T02:30:47;17.90;99.90
65046;DHT22;54657;52.022;5.534;2023-10-13T02:33:18;17.90;99.90
65046;DHT22;54657;52.022;5.534;2023-10-13T02:35:48;17.90;99.90
65046;DHT22;54657;52.022;5.534;2023-10-13T02:38:19;18.00;99.90
65046;DHT22;54657;52.022;5.534;2023-10-13T02:40:54;17.90;99.90
65046;DHT22;54657;52.022;5.534;2023-10-13T02:43:23;17.90;99.90
65046;DHT22;54657;52.022;5.534;2023-10-13T02:45:54;17.90;99.90
65046;DHT22;54657;52.022;5.534;2023-10-13T02:48:25;17.90;99.90
65046;DHT22;54657;52.022;5.534;2023-10-13T02:50:59;17.90;99.90
65046;DHT22;54657;52.022;5.534;2023-10-13T02:53:31;18.00;99.90
65046;DHT22;54657;52.022;5.534;2023-10-13T02:55:56;18.00;99.90
65046;DHT22;54657;52.022;5.534;2023-10-13T02:58:23;18.00;99.90
65046;DHT22;54657;52.022;5.534;2023-10-13T03:01:06;18.00;99.90
65046;DHT22;54657;52.022;5.534;2023-10-13T03:03:51;18.00;99.90
65046;DHT22;54657;52.022;5.534;2023-10-13T03:06:20;18.00;99.90
65046;DHT22;54657;52.022;5.534;2023-10-13T03:08:48;18.00;99.90
65046;DHT22;54657;52.022;5.534;2023-10-13T03:11:14;18.00;99.90
65046;DHT22;54657;52.022;5.534;2023-10-13T03:13:40;18.00;99.90
65046;DHT22;54657;52.022;5.534;2023-10-13T03:16:16;18.00;99.90
65046;DHT22;54657;52.022;5.534;2023-10-13T03:18:48;18.00;99.90
65046;DHT22;54657;52.022;5.534;2023-10-13T03:21:22;18.00;99.90
65046;DHT22;54657;52.022;5.534;2023-10-13T03:24:00;18.00;99.90
65046;DHT22;54657;52.022;5.534;2023-10-13T03:26:32;18.00;99.90
65046;DHT22;54657;52.022;5.534;2023-10-13T03:29:02;18.00;99.90
65046;DHT22;54657;52.022;5.534;2023-10-13T03:31:30;18.00;99.90
65046;DHT22;54657;52.022;5.534;2023-10-13T03:34:03;18.00;99.90
65046;DHT22;54657;52.022;5.534;2023-10-13T03:36:29;17.90;99.90
65046;DHT22;54657;52.022;5.534;2023-10-13T03:39:13;18.00;99.90
65046;DHT22;54657;52.022;5.534;2023-10-13T03:41:39;17.90;99.90
65046;DHT22;54657;52.022;5.534;2023-10-13T03:44:06;18.00;99.90
65046;DHT22;54657;52.022;5.534;2023-10-13T03:46:39;17.90;99.90
65046;DHT22;54657;52.022;5.534;2023-10-13T03:49:09;17.90;99.90
65046;DHT22;54657;52.022;5.534;2023-10-13T03:51:41;17.90;99.90
65046;DHT22;54657;52.022;5.534;2023-10-13T03:54:06;17.90;99.90
65046;DHT22;54657;52.022;5.534;2023-10-13T03:56:35;17.90;99.90
65046;DHT22;54657;52.022;5.534;2023-10-13T03:59:05;17.90;99.90
65046;DHT22;54657;52.022;5.534;2023-10-13T04:01:44;17.90;99.90
65046;DHT22;54657;52.022;5.534;2023-10-13T04:04:24;17.90;99.90
65046;DHT22;54657;52.022;5.534;2023-10-13T04:07:08;17.90;99.90
65046;DHT22;54657;52.022;5.534;2023-10-13T04:09:35;17.90;99.90
65046;DHT22;54657;52.022;5.534;2023-10-13T04:12:07;17.90;99.90
65046;DHT22;54657;52.022;5.534;2023-10-13T04:14:51;17.90;99.90
65046;DHT22;54657;52.022;5.534;2023-10-13T04:17:24;17.90;99.90
65046;DHT22;54657;52.022;5.534;2023-10-13T04:19:54;17.90;99.90
65046;DHT22;54657;52.022;5.534;2023-10-13T04:25:14;17.90;99.90
65046;DHT22;54657;52.022;5.534;2023-10-13T04:27:58;17.90;99.90
65046;DHT22;54657;52.022;5.534;2023-10-13T04:30:47;17.90;99.90
65046;DHT22;54657;52.022;5.534;2023-10-13T04:33:29;17.80;99.90
65046;DHT22;54657;52.022;5.534;2023-10-13T04:38:51;17.90;99.90
65046;DHT22;54657;52.022;5.534;2023-10-13T04:41:30;17.90;99.90
65046;DHT22;54657;52.022;5.534;2023-10-13T04:44:13;17.90;99.90
65046;DHT22;54657;52.022;5.534;2023-10-13T04:46:59;17.90;99.90
65046;DHT22;54657;52.022;5.534;2023-10-13T04:49:25;17.90;99.90
65046;DHT22;54657;52.022;5.534;2023-10-13T04:51:59;17.90;99.90
65046;DHT22;54657;52.022;5.534;2023-10-13T04:54:27;17.90;99.90
65046;DHT22;54657;52.022;5.534;2023-10-13T04:57:10;17.90;99.90
65046;DHT22;54657;52.022;5.534;2023-10-13T05:00:00;17.90;99.90
65046;DHT22;54657;52.022;5.534;2023-10-13T05:02:29;17.90;99.90
65046;DHT22;54657;52.022;5.534;2023-10-13T05:05:14;17.90;99.90
65046;DHT22;54657;52.022;5.534;2023-10-13T05:07:43;17.90;99.90
65046;DHT22;54657;52.022;5.534;2023-10-13T05:10:28;18.00;99.90
65046;DHT22;54657;52.022;5.534;2023-10-13T05:13:12;18.00;99.90
65046;DHT22;54657;52.022;5.534;2023-10-13T05:15:56;18.00;99.90
65046;DHT22;54657;52.022;5.534;2023-10-13T05:18:40;18.00;99.90
65046;DHT22;54657;52.022;5.534;2023-10-13T05:21:24;18.10;99.90
65046;DHT22;54657;52.022;5.534;2023-10-13T05:24:08;18.10;99.90
65046;DHT22;54657;52.022;5.534;2023-10-13T05:26:53;18.20;99.90
65046;DHT22;54657;52.022;5.534;2023-10-13T05:29:41;18.20;99.90
65046;DHT22;54657;52.022;5.534;2023-10-13T05:32:25;18.30;99.90
65046;DHT22;54657;52.022;5.534;2023-10-13T05:35:09;18.30;99.90
65046;DHT22;54657;52.022;5.534;2023-10-13T05:37:54;18.30;99.90
65046;DHT22;54657;52.022;5.534;2023-10-13T05:40:38;18.40;99.90
65046;DHT22;54657;52.022;5.534;2023-10-13T05:43:22;18.40;99.90
65046;DHT22;54657;52.022;5.534;2023-10-13T05:46:06;18.40;99.90
65046;DHT22;54657;52.022;5.534;2023-10-13T05:48:50;18.40;99.90
65046;DHT22;54657;52.022;5.534;2023-10-13T05:51:29;18.40;99.90
65046;DHT22;54657;52.022;5.534;2023-10-13T05:54:03;18.40;99.90
65046;DHT22;54657;52.022;5.534;2023-10-13T05:56:51;18.50;99.90
65046;DHT22;54657;52.022;5.534;2023-10-13T05:59:38;18.50;99.90
65046;DHT22;54657;52.022;5.534;2023-10-13T06:02:23;18.40;99.90
65046;DHT22;54657;52.022;5.534;2023-10-13T06:05:12;18.40;99.90
65046;DHT22;54657;52.022;5.534;2023-10-13T06:07:57;18.40;99.90
65046;DHT22;54657;52.022;5.534;2023-10-13T06:10:42;18.40;99.90
65046;DHT22;54657;52.022;5.534;2023-10-13T06:13:26;18.50;99.90
65046;DHT22;54657;52.022;5.534;2023-10-13T06:16:13;18.50;99.90
65046;DHT22;54657;52.022;5.534;2023-10-13T06:18:57;18.50;99.90
65046;DHT22;54657;52.022;5.534;2023-10-13T06:21:42;18.50;99.90
65046;DHT22;54657;52.022;5.534;2023-10-13T06:24:27;18.50;99.90
65046;DHT22;54657;52.022;5.534;2023-10-13T06:27:11;18.50;99.90
65046;DHT22;54657;52.022;5.534;2023-10-13T06:29:55;18.50;99.90
65046;DHT22;54657;52.022;5.534;2023-10-13T06:32:21;18.50;99.90
65046;DHT22;54657;52.022;5.534;2023-10-13T06:34:52;18.50;99.90
65046;DHT22;54657;52.022;5.534;2023-10-13T06:37:26;18.50;99.90
65046;DHT22;54657;52.022;5.534;2023-10-13T06:40:02;18.60;99.90
65046;DHT22;54657;52.022;5.534;2023-10-13T06:42:32;18.60;99.90
65046;DHT22;54657;52.022;5.534;2023-10-13T06:45:00;18.60;99.90
65046;DHT22;54657;52.022;5.534;2023-10-13T06:47:36;18.60;99.90
65046;DHT22;54657;52.022;5.534;2023-10-13T06:50:21;18.60;99.90
65046;DHT22;54657;52.022;5.534;2023-10-13T06:52:50;18.60;99.90
65046;DHT22;54657;52.022;5.534;2023-10-13T06:55:16;18.60;99.90
65046;DHT22;54657;52.022;5.534;2023-10-13T06:57:49;18.70;99.90
65046;DHT22;54657;52.022;5.534;2023-10-13T07:00:16;18.70;99.90
65046;DHT22;54657;52.022;5.534;2023-10-13T07:02:53;18.70;99.90
65046;DHT22;54657;52.022;5.534;2023-10-13T07:05:18;18.70;99.90
65046;DHT22;54657;52.022;5.534;2023-10-13T07:07:45;18.70;99.90
65046;DHT22;54657;52.022;5.534;2023-10-13T07:10:11;18.70;99.90
65046;DHT22;54657;52.022;5.534;2023-10-13T07:12:38;18.70;99.90
65046;DHT22;54657;52.022;5.534;2023-10-13T07:15:09;18.70;99.90
65046;DHT22;54657;52.022;5.534;2023-10-13T07:17:47;18.70;99.90
65046;DHT22;54657;52.022;5.534;2023-10-13T07:20:20;18.70;99.90
65046;DHT22;54657;52.022;5.534;2023-10-13T07:22:54;18.70;99.90
65046;DHT22;54657;52.022;5.534;2023-10-13T07:25:32;18.70;99.90
65046;DHT22;54657;52.022;5.534;2023-10-13T07:28:01;18.70;99.90
65046;DHT22;54657;52.022;5.534;2023-10-13T07:30:27;18.70;99.90
65046;DHT22;54657;52.022;5.534;2023-10-13T07:32:53;18.70;99.90
65046;DHT22;54657;52.022;5.534;2023-10-13T07:35:23;18.70;99.90
65046;DHT22;54657;52.022;5.534;2023-10-13T07:37:50;18.80;99.90
65046;DHT22;54657;52.022;5.534;2023-10-13T07:40:20;18.80;99.90
65046;DHT22;54657;52.022;5.534;2023-10-13T07:42:49;18.80;99.90
65046;DHT22;54657;52.022;5.534;2023-10-13T07:45:15;18.80;99.90
65046;DHT22;54657;52.022;5.534;2023-10-13T07:47:50;18.80;99.90
65046;DHT22;54657;52.022;5.534;2023-10-13T07:50:16;18.80;99.90
65046;DHT22;54657;52.022;5.534;2023-10-13T07:52:50;18.80;99.90
65046;DHT22;54657;52.022;5.534;2023-10-13T07:55:31;18.80;99.90
65046;DHT22;54657;52.022;5.534;2023-10-13T07:57:59;18.80;99.90
65046;DHT22;54657;52.022;5.534;2023-10-13T08:00:25;18.80;99.90
65046;DHT22;54657;52.022;5.534;2023-10-13T08:03:14;18.80;99.90
65046;DHT22;54657;52.022;5.534;2023-10-13T08:05:40;18.80;99.90
65046;DHT22;54657;52.022;5.534;2023-10-13T08:08:27;18.80;99.90
65046;DHT22;54657;52.022;5.534;2023-10-13T08:11:12;18.90;99.90
65046;DHT22;54657;52.022;5.534;2023-10-13T08:16:29;18.90;99.90
65046;DHT22;54657;52.022;5.534;2023-10-13T08:19:15;18.90;99.90
65046;DHT22;54657;52.022;5.534;2023-10-13T08:21:45;18.90;99.90
65046;DHT22;54657;52.022;5.534;2023-10-13T08:24:27;19.00;99.90
65046;DHT22;54657;52.022;5.534;2023-10-13T08:27:20;19.00;99.90
65046;DHT22;54657;52.022;5.534;2023-10-13T08:30:05;19.00;99.90
65046;DHT22;54657;52.022;5.534;2023-10-13T08:32:51;19.10;99.90
65046;DHT22;54657;52.022;5.534;2023-10-13T08:35:21;19.20;99.90
65046;DHT22;54657;52.022;5.534;2023-10-13T08:37:55;19.20;99.90
65046;DHT22;54657;52.022;5.534;2023-10-13T08:40:23;19.20;99.90
65046;DHT22;54657;52.022;5.534;2023-10-13T08:43:12;19.30;99.90
65046;DHT22;54657;52.022;5.534;2023-10-13T08:45:42;19.30;99.90
65046;DHT22;54657;52.022;5.534;2023-10-13T08:48:10;19.30;99.90
65046;DHT22;54657;52.022;5.534;2023-10-13T08:53:32;19.40;99.90
65046;DHT22;54657;52.022;5.534;2023-10-13T08:58:43;19.50;99.90
65046;DHT22;54657;52.022;5.534;2023-10-13T09:01:37;19.50;99.90
65046;DHT22;54657;52.022;5.534;2023-10-13T09:04:18;19.60;99.90
65046;DHT22;54657;52.022;5.534;2023-10-13T09:06:55;19.60;99.90
65046;DHT22;54657;52.022;5.534;2023-10-13T09:12:26;19.60;99.90
65046;DHT22;54657;52.022;5.534;2023-10-13T09:15:06;19.60;99.90
65046;DHT22;54657;52.022;5.534;2023-10-13T09:17:52;19.70;99.90
65046;DHT22;54657;52.022;5.534;2023-10-13T09:20:29;19.60;99.90
65046;DHT22;54657;52.022;5.534;2023-10-13T09:23:14;19.70;99.90
65046;DHT22;54657;52.022;5.534;2023-10-13T09:26:10;19.70;99.90
65046;DHT22;54657;52.022;5.534;2023-10-13T09:28:37;19.70;99.90
65046;DHT22;54657;52.022;5.534;2023-10-13T09:31:03;19.70;99.90
65046;DHT22;54657;52.022;5.534;2023-10-13T09:33:33;19.70;99.90
65046;DHT22;54657;52.022;5.534;2023-10-13T09:36:01;19.70;99.90
65046;DHT22;54657;52.022;5.534;2023-10-13T09:38:32;19.70;99.90
65046;DHT22;54657;52.022;5.534;2023-10-13T09:40:58;19.80;99.90
65046;DHT22;54657;52.022;5.534;2023-10-13T09:43:27;19.80;99.90
65046;DHT22;54657;52.022;5.534;2023-10-13T09:45:59;19.80;99.90
65046;DHT22;54657;52.022;5.534;2023-10-13T09:48:37;19.90;99.90
65046;DHT22;54657;52.022;5.534;2023-10-13T09:51:14;19.90;99.90
65046;DHT22;54657;52.022;5.534;2023-10-13T09:53:51;19.90;99.90
65046;DHT22;54657;52.022;5.534;2023-10-13T09:56:24;19.90;99.90
65046;DHT22;54657;52.022;5.534;2023-10-13T09:59:06;19.90;99.90
65046;DHT22;54657;52.022;5.534;2023-10-13T10:01:40;20.00;99.90
65046;DHT22;54657;52.022;5.534;2023-10-13T10:04:16;20.00;99.90
65046;DHT22;54657;52.022;5.534;2023-10-13T10:06:55;19.90;99.90
65046;DHT22;54657;52.022;5.534;2023-10-13T10:09:33;20.00;99.90
65046;DHT22;54657;52.022;5.534;2023-10-13T10:15:16;20.10;99.90
65046;DHT22;54657;52.022;5.534;2023-10-13T10:17:56;20.10;99.90
65046;DHT22;54657;52.022;5.534;2023-10-13T10:20:29;20.10;99.90
65046;DHT22;54657;52.022;5.534;2023-10-13T10:23:07;20.00;99.90
65046;DHT22;54657;52.022;5.534;2023-10-13T10:25:38;20.10;99.90
65046;DHT22;54657;52.022;5.534;2023-10-13T10:28:07;20.10;99.90
65046;DHT22;54657;52.022;5.534;2023-10-13T10:30:37;20.10;99.90
65046;DHT22;54657;52.022;5.534;2023-10-13T10:33:08;20.10;99.90
65046;DHT22;54657;52.022;5.534;2023-10-13T10:35:59;20.10;99.90
65046;DHT22;54657;52.022;5.534;2023-10-13T10:38:24;20.20;99.90
65046;DHT22;54657;52.022;5.534;2023-10-13T10:40:58;20.10;99.90
65046;DHT22;54657;52.022;5.534;2023-10-13T10:43:26;20.10;99.90
65046;DHT22;54657;52.022;5.534;2023-10-13T10:45:52;20.30;99.90
65046;DHT22;54657;52.022;5.534;2023-10-13T10:48:25;20.30;99.90
65046;DHT22;54657;52.022;5.534;2023-10-13T10:50:57;20.30;98.80
65046;DHT22;54657;52.022;5.534;2023-10-13T10:53:24;20.30;99.90
65046;DHT22;54657;52.022;5.534;2023-10-13T10:56:05;20.40;99.90
65046;DHT22;54657;52.022;5.534;2023-10-13T10:58:34;20.50;99.60
65046;DHT22;54657;52.022;5.534;2023-10-13T11:01:09;20.50;99.70
65046;DHT22;54657;52.022;5.534;2023-10-13T11:04:00;20.60;99.50
65046;DHT22;54657;52.022;5.534;2023-10-13T11:06:54;20.70;99.10
65046;DHT22;54657;52.022;5.534;2023-10-13T11:09:28;20.80;99.40
65046;DHT22;54657;52.022;5.534;2023-10-13T11:14:31;20.90;99.10
65046;DHT22;54657;52.022;5.534;2023-10-13T11:16:58;20.90;99.10
65046;DHT22;54657;52.022;5.534;2023-10-13T11:19:38;20.90;99.00
65046;DHT22;54657;52.022;5.534;2023-10-13T11:22:14;20.90;98.70
65046;DHT22;54657;52.022;5.534;2023-10-13T11:25:05;20.90;98.20
65046;DHT22;54657;52.022;5.534;2023-10-13T11:27:41;20.90;98.70
65046;DHT22;54657;52.022;5.534;2023-10-13T11:30:13;20.90;99.00
65046;DHT22;54657;52.022;5.534;2023-10-13T11:32:41;20.80;98.70
65046;DHT22;54657;52.022;5.534;2023-10-13T11:35:10;20.80;98.70
65046;DHT22;54657;52.022;5.534;2023-10-13T11:37:51;20.90;98.50
65046;DHT22;54657;52.022;5.534;2023-10-13T11:40:30;20.90;98.50
65046;DHT22;54657;52.022;5.534;2023-10-13T11:43:14;20.80;98.30
65046;DHT22;54657;52.022;5.534;2023-10-13T11:45:41;20.90;98.10
65046;DHT22;54657;52.022;5.534;2023-10-13T11:48:39;20.90;97.90
65046;DHT22;54657;52.022;5.534;2023-10-13T11:51:08;20.90;97.50
65046;DHT22;54657;52.022;5.534;2023-10-13T11:53:37;20.90;96.80
65046;DHT22;54657;52.022;5.534;2023-10-13T11:56:04;21.00;96.50
65046;DHT22;54657;52.022;5.534;2023-10-13T11:58:34;21.00;96.70
65046;DHT22;54657;52.022;5.534;2023-10-13T12:01:00;21.00;96.90
65046;DHT22;54657;52.022;5.534;2023-10-13T12:03:41;21.00;96.90
65046;DHT22;54657;52.022;5.534;2023-10-13T12:06:25;21.00;97.00
65046;DHT22;54657;52.022;5.534;2023-10-13T12:09:07;21.00;96.80
65046;DHT22;54657;52.022;5.534;2023-10-13T12:11:41;21.10;96.80
65046;DHT22;54657;52.022;5.534;2023-10-13T12:14:17;21.10;96.50
65046;DHT22;54657;52.022;5.534;2023-10-13T12:16:49;21.20;95.50
65046;DHT22;54657;52.022;5.534;2023-10-13T12:19:19;21.10;96.40
65046;DHT22;54657;52.022;5.534;2023-10-13T12:21:52;21.20;96.10
65046;DHT22;54657;52.022;5.534;2023-10-13T12:24:26;21.20;96.50
65046;DHT22;54657;52.022;5.534;2023-10-13T12:27:05;21.20;96.30
65046;DHT22;54657;52.022;5.534;2023-10-13T12:32:12;21.20;96.50
65046;DHT22;54657;52.022;5.534;2023-10-13T12:34:39;21.30;96.40
65046;DHT22;54657;52.022;5.534;2023-10-13T12:37:41;21.30;96.20
65046;DHT22;54657;52.022;5.534;2023-10-13T12:40:18;21.30;96.20
65046;DHT22;54657;52.022;5.534;2023-10-13T12:43:04;21.30;95.70
65046;DHT22;54657;52.022;5.534;2023-10-13T12:45:50;21.30;96.00
65046;DHT22;54657;52.022;5.534;2023-10-13T12:48:35;21.40;96.00
65046;DHT22;54657;52.022;5.534;2023-10-13T12:51:19;21.40;95.80
65046;DHT22;54657;52.022;5.534;2023-10-13T12:53:49;21.40;95.90
65046;DHT22;54657;52.022;5.534;2023-10-13T12:56:16;21.40;95.50
65046;DHT22;54657;52.022;5.534;2023-10-13T12:58:42;21.50;95.70
65046;DHT22;54657;52.022;5.534;2023-10-13T13:01:17;21.40;95.70
65046;DHT22;54657;52.022;5.534;2023-10-13T13:03:46;21.40;95.70
65046;DHT22;54657;52.022;5.534;2023-10-13T13:06:19;21.40;95.70
65046;DHT22;54657;52.022;5.534;2023-10-13T13:08:53;21.40;95.40
65046;DHT22;54657;52.022;5.534;2023-10-13T13:11:19;21.40;95.60
65046;DHT22;54657;52.022;5.534;2023-10-13T13:13:45;21.40;95.60
65046;DHT22;54657;52.022;5.534;2023-10-13T13:16:15;21.40;95.50
65046;DHT22;54657;52.022;5.534;2023-10-13T13:18:46;21.40;95.60
65046;DHT22;54657;52.022;5.534;2023-10-13T13:21:12;21.40;95.70
65046;DHT22;54657;52.022;5.534;2023-10-13T13:23:42;21.30;95.50
65046;DHT22;54657;52.022;5.534;2023-10-13T13:26:08;21.30;95.60
65046;DHT22;54657;52.022;5.534;2023-10-13T13:28:41;21.30;95.70
65046;DHT22;54657;52.022;5.534;2023-10-13T13:31:08;21.30;95.70
65046;DHT22;54657;52.022;5.534;2023-10-13T13:33:34;21.20;95.90
65046;DHT22;54657;52.022;5.534;2023-10-13T13:36:04;21.20;96.00
65046;DHT22;54657;52.022;5.534;2023-10-13T13:38:30;21.10;96.40
65046;DHT22;54657;52.022;5.534;2023-10-13T13:40:58;21.00;96.60
65046;DHT22;54657;52.022;5.534;2023-10-13T13:43:24;20.90;96.60
65046;DHT22;54657;52.022;5.534;2023-10-13T13:46:17;20.80;96.80
65046;DHT22;54657;52.022;5.534;2023-10-13T13:48:43;20.70;96.90
65046;DHT22;54657;52.022;5.534;2023-10-13T13:51:13;20.70;97.10
65046;DHT22;54657;52.022;5.534;2023-10-13T13:53:44;20.70;97.10
65046;DHT22;54657;52.022;5.534;2023-10-13T13:56:11;20.60;97.20
65046;DHT22;54657;52.022;5.534;2023-10-13T13:58:45;20.60;97.40
65046;DHT22;54657;52.022;5.534;2023-10-13T14:01:11;20.50;97.50
65046;DHT22;54657;52.022;5.534;2023-10-13T14:03:44;20.50;97.60
65046;DHT22;54657;52.022;5.534;2023-10-13T14:06:13;20.40;97.60
65046;DHT22;54657;52.022;5.534;2023-10-13T14:08:57;20.30;96.90
65046;DHT22;54657;52.022;5.534;2023-10-13T14:11:26;20.30;97.80
65046;DHT22;54657;52.022;5.534;2023-10-13T14:14:08;20.20;98.00
65046;DHT22;54657;52.022;5.534;2023-10-13T14:16:52;20.30;98.10
65046;DHT22;54657;52.022;5.534;2023-10-13T14:19:19;20.20;98.10
65046;DHT22;54657;52.022;5.534;2023-10-13T14:21:54;20.20;98.20
65046;DHT22;54657;52.022;5.534;2023-10-13T14:24:20;20.10;98.30
65046;DHT22;54657;52.022;5.534;2023-10-13T14:27:00;20.00;98.50
65046;DHT22;54657;52.022;5.534;2023-10-13T14:29:43;20.00;98.60
65046;DHT22;54657;52.022;5.534;2023-10-13T14:32:09;20.00;98.80
65046;DHT22;54657;52.022;5.534;2023-10-13T14:34:43;19.90;98.80
65046;DHT22;54657;52.022;5.534;2023-10-13T14:37:09;19.90;98.90
65046;DHT22;54657;52.022;5.534;2023-10-13T14:39:40;19.90;99.10
65046;DHT22;54657;52.022;5.534;2023-10-13T14:42:06;19.80;99.20
65046;DHT22;54657;52.022;5.534;2023-10-13T14:44:33;19.80;99.30
65046;DHT22;54657;52.022;5.534;2023-10-13T14:46:59;19.80;99.30
65046;DHT22;54657;52.022;5.534;2023-10-13T14:49:24;19.80;99.40
65046;DHT22;54657;52.022;5.534;2023-10-13T14:51:50;19.70;99.50
65046;DHT22;54657;52.022;5.534;2023-10-13T14:54:16;19.70;99.50
65046;DHT22;54657;52.022;5.534;2023-10-13T14:56:42;19.70;99.60
65046;DHT22;54657;52.022;5.534;2023-10-13T14:59:08;19.70;99.60
65046;DHT22;54657;52.022;5.534;2023-10-13T15:01:40;19.60;99.70
65046;DHT22;54657;52.022;5.534;2023-10-13T15:04:06;19.60;99.70
65046;DHT22;54657;52.022;5.534;2023-10-13T15:06:31;19.60;99.70
65046;DHT22;54657;52.022;5.534;2023-10-13T15:08:58;19.60;99.80
65046;DHT22;54657;52.022;5.534;2023-10-13T15:11:25;19.60;99.80
65046;DHT22;54657;52.022;5.534;2023-10-13T15:14:05;19.60;99.80
65046;DHT22;54657;52.022;5.534;2023-10-13T15:16:32;19.60;99.90
65046;DHT22;54657;52.022;5.534;2023-10-13T15:19:00;19.60;99.90
65046;DHT22;54657;52.022;5.534;2023-10-13T15:21:29;19.60;99.90
65046;DHT22;54657;52.022;5.534;2023-10-13T15:24:02;19.60;99.90
65046;DHT22;54657;52.022;5.534;2023-10-13T15:26:44;19.60;99.90
65046;DHT22;54657;52.022;5.534;2023-10-13T15:29:22;19.50;99.90
65046;DHT22;54657;52.022;5.534;2023-10-13T15:32:01;19.50;99.90
65046;DHT22;54657;52.022;5.534;2023-10-13T15:34:28;19.50;99.90
65046;DHT22;54657;52.022;5.534;2023-10-13T15:36:54;19.50;99.90
65046;DHT22;54657;52.022;5.534;2023-10-13T15:39:24;19.50;99.90
65046;DHT22;54657;52.022;5.534;2023-10-13T15:41:50;19.50;99.90
65046;DHT22;54657;52.022;5.534;2023-10-13T15:44:19;19.50;99.90
65046;DHT22;54657;52.022;5.534;2023-10-13T15:46:46;19.40;99.90
65046;DHT22;54657;52.022;5.534;2023-10-13T15:49:15;19.50;99.90
65046;DHT22;54657;52.022;5.534;2023-10-13T15:51:41;19.40;99.90
65046;DHT22;54657;52.022;5.534;2023-10-13T15:54:07;19.50;99.90
65046;DHT22;54657;52.022;5.534;2023-10-13T15:56:41;19.40;99.90
65046;DHT22;54657;52.022;5.534;2023-10-13T15:59:06;19.40;99.90
65046;DHT22;54657;52.022;5.534;2023-10-13T16:01:32;19.50;99.90
65046;DHT22;54657;52.022;5.534;2023-10-13T16:03:59;19.50;99.90
65046;DHT22;54657;52.022;5.534;2023-10-13T16:06:25;19.50;99.90
65046;DHT22;54657;52.022;5.534;2023-10-13T16:08:51;19.50;99.90
65046;DHT22;54657;52.022;5.534;2023-10-13T16:11:17;19.60;99.90
65046;DHT22;54657;52.022;5.534;2023-10-13T16:13:44;19.60;99.90
65046;DHT22;54657;52.022;5.534;2023-10-13T16:16:16;19.60;99.90
65046;DHT22;54657;52.022;5.534;2023-10-13T16:18:43;19.60;99.90
65046;DHT22;54657;52.022;5.534;2023-10-13T16:21:10;19.60;99.90
65046;DHT22;54657;52.022;5.534;2023-10-13T16:23:38;19.60;99.90
65046;DHT22;54657;52.022;5.534;2023-10-13T16:26:05;19.60;99.90
65046;DHT22;54657;52.022;5.534;2023-10-13T16:28:33;19.60;99.90
65046;DHT22;54657;52.022;5.534;2023-10-13T16:31:00;19.50;99.90
65046;DHT22;54657;52.022;5.534;2023-10-13T16:33:25;19.50;99.90
65046;DHT22;54657;52.022;5.534;2023-10-13T16:35:53;19.50;99.90